Check out our new PWSWeather beta!
PWSweather.com
Personal Weather Stations
Station Observations
LEOMA1
Leoma, TN 38468

Leoma, TN 38468

Lat: 35.1006941, Lon: -87.3478663

Elevation: 958

Station Type: LaCrosse 2315

Latest ConditionsUpdated 6:20:12 AM CST Thursday, Feb 27, 2020
Currently Today's Max Today's Min Today's Average
Temperature 26.8°F-2.9°C 32.5°F0.3°C 26.6°F-3.0°C 30.1°F-1.1°C
Dew Point 24.8°F-4.0°C 28.7°F-1.8°C 24.6°F-4.1°C 26.7°F-2.9°C
Winds Calm Calm 6.0 mph -9.7 kmh - - 1.3 mph 2.1 kmh
Wind Gusts 1.0 mph1.6 kmh 8.0 mph12.9 kmh - -
Humidity 92% 92% 84% 87%
Pressure 30.26 in1024.7 mb 30.26 in1024.7 mb 30.22 in1023.4 mb -
Hour Temp Dew Point Humidity Winds Wind Gusts Pressure Precip Precip Rate Daily Precip Total
06:20 AM 26.8°F-2.9°C 24.8°F-4.0°C 92% Calm Calm 1.0 mph1.6 kmh 30.26 in1024.7 mb 0.00 in0.0 mm 0.00 in0.0 mm 0.00 in0.0 mm
06:10 AM 26.6°F-3.0°C 24.6°F-4.1°C 92% Calm Calm -- 30.25 in1024.4 mb 0.00 in0.0 mm 0.00 in0.0 mm 0.00 in0.0 mm
06:00 AM 26.9°F-2.8°C 24.6°F-4.1°C 91% Calm Calm -- 30.25 in1024.4 mb 0.00 in0.0 mm 0.00 in0.0 mm 0.00 in0.0 mm
05:50 AM 27.3°F-2.6°C 25.0°F-3.9°C 91% Calm Calm 1.0 mph1.6 kmh 30.25 in1024.4 mb 0.00 in0.0 mm 0.00 in0.0 mm 0.00 in0.0 mm
05:40 AM 27.4°F-2.6°C 24.9°F-3.9°C 90% Calm Calm -- 30.24 in1024.0 mb 0.00 in0.0 mm 0.00 in0.0 mm 0.00 in0.0 mm
05:30 AM 27.6°F-2.4°C 25.1°F-3.8°C 90% Calm Calm -- 30.24 in1024.0 mb 0.00 in0.0 mm 0.00 in0.0 mm 0.00 in0.0 mm
05:20 AM 28.0°F-2.2°C 24.9°F-3.9°C 88% Calm Calm -- 30.24 in1024.0 mb 0.00 in0.0 mm 0.00 in0.0 mm 0.00 in0.0 mm
05:10 AM 28.6°F-1.9°C 25.2°F-3.8°C 87% Calm Calm -- 30.24 in1024.0 mb 0.00 in0.0 mm 0.00 in0.0 mm 0.00 in0.0 mm
05:00 AM 28.9°F-1.7°C 25.5°F-3.6°C 87% 3.0 mph W4.8 kmh W 3.0 mph4.8 kmh 30.24 in1024.0 mb 0.00 in0.0 mm 0.00 in0.0 mm 0.00 in0.0 mm
04:50 AM 29.1°F-1.6°C 25.7°F-3.5°C 87% Calm Calm 1.0 mph1.6 kmh 30.24 in1024.0 mb 0.00 in0.0 mm 0.00 in0.0 mm 0.00 in0.0 mm
04:40 AM 29.3°F-1.5°C 25.9°F-3.4°C 87% 1.0 mph WNW1.6 kmh WNW 5.0 mph8.0 kmh 30.24 in1024.0 mb 0.00 in0.0 mm 0.00 in0.0 mm 0.00 in0.0 mm
04:30 AM 29.4°F-1.4°C 26.0°F-3.3°C 87% 2.0 mph W3.2 kmh W 3.0 mph4.8 kmh 30.23 in1023.7 mb 0.00 in0.0 mm 0.00 in0.0 mm 0.00 in0.0 mm
04:20 AM 29.6°F-1.3°C 26.2°F-3.2°C 87% 1.0 mph W1.6 kmh W 4.0 mph6.4 kmh 30.23 in1023.7 mb 0.00 in0.0 mm 0.00 in0.0 mm 0.00 in0.0 mm
04:10 AM 30.0°F-1.1°C 26.6°F-3.0°C 87% Calm Calm 2.0 mph3.2 kmh 30.23 in1023.7 mb 0.00 in0.0 mm 0.00 in0.0 mm 0.00 in0.0 mm
04:00 AM 30.2°F-1.0°C 26.5°F-3.1°C 86% 3.0 mph WNW4.8 kmh WNW 3.0 mph4.8 kmh 30.23 in1023.7 mb 0.00 in0.0 mm 0.00 in0.0 mm 0.00 in0.0 mm
03:50 AM 30.5°F-0.8°C 27.1°F-2.7°C 87% 1.0 mph WSW1.6 kmh WSW 3.0 mph4.8 kmh 30.23 in1023.7 mb 0.00 in0.0 mm 0.00 in0.0 mm 0.00 in0.0 mm
03:40 AM 30.6°F-0.8°C 26.9°F-2.8°C 86% 1.0 mph NW1.6 kmh NW 5.0 mph8.0 kmh 30.23 in1023.7 mb 0.00 in0.0 mm 0.00 in0.0 mm 0.00 in0.0 mm
03:30 AM 30.8°F-0.7°C 27.1°F-2.7°C 86% 1.0 mph SW1.6 kmh SW 2.0 mph3.2 kmh 30.23 in1023.7 mb 0.00 in0.0 mm 0.00 in0.0 mm 0.00 in0.0 mm
03:20 AM 30.9°F-0.6°C 26.9°F-2.8°C 85% 1.0 mph WSW1.6 kmh WSW 3.0 mph4.8 kmh 30.23 in1023.7 mb 0.00 in0.0 mm 0.00 in0.0 mm 0.00 in0.0 mm
03:10 AM 31.0°F-0.6°C 27.0°F-2.8°C 85% 1.0 mph WSW1.6 kmh WSW 4.0 mph6.4 kmh 30.23 in1023.7 mb 0.00 in0.0 mm 0.00 in0.0 mm 0.00 in0.0 mm
03:00 AM 31.0°F-0.6°C 27.0°F-2.8°C 85% 2.0 mph W3.2 kmh W 3.0 mph4.8 kmh 30.23 in1023.7 mb 0.00 in0.0 mm 0.00 in0.0 mm 0.00 in0.0 mm
02:50 AM 30.9°F-0.6°C 27.2°F-2.7°C 86% 2.0 mph WSW3.2 kmh WSW 2.0 mph3.2 kmh 30.23 in1023.7 mb 0.00 in0.0 mm 0.00 in0.0 mm 0.00 in0.0 mm
02:40 AM 30.7°F-0.7°C 27.0°F-2.8°C 86% 2.0 mph WNW3.2 kmh WNW 3.0 mph4.8 kmh 30.23 in1023.7 mb 0.00 in0.0 mm 0.00 in0.0 mm 0.00 in0.0 mm
02:30 AM 30.5°F-0.8°C 27.1°F-2.7°C 87% 2.0 mph W3.2 kmh W 2.0 mph3.2 kmh 30.22 in1023.4 mb 0.00 in0.0 mm 0.00 in0.0 mm 0.00 in0.0 mm
02:20 AM 30.3°F-0.9°C 26.9°F-2.8°C 87% Calm Calm 2.0 mph3.2 kmh 30.23 in1023.7 mb 0.00 in0.0 mm 0.00 in0.0 mm 0.00 in0.0 mm
02:10 AM 30.4°F-0.9°C 27.0°F-2.8°C 87% Calm Calm 2.0 mph3.2 kmh 30.23 in1023.7 mb 0.00 in0.0 mm 0.00 in0.0 mm 0.00 in0.0 mm
02:00 AM 30.5°F-0.8°C 26.8°F-2.9°C 86% Calm Calm 2.0 mph3.2 kmh 30.24 in1024.0 mb 0.00 in0.0 mm 0.00 in0.0 mm 0.00 in0.0 mm
01:50 AM 30.7°F-0.7°C 27.0°F-2.8°C 86% 1.0 mph NW1.6 kmh NW 3.0 mph4.8 kmh 30.23 in1023.7 mb 0.00 in0.0 mm 0.00 in0.0 mm 0.00 in0.0 mm
01:40 AM 31.0°F-0.6°C 27.3°F-2.6°C 86% 1.0 mph WSW1.6 kmh WSW 3.0 mph4.8 kmh 30.23 in1023.7 mb 0.00 in0.0 mm 0.00 in0.0 mm 0.00 in0.0 mm
01:30 AM 31.2°F-0.4°C 27.2°F-2.7°C 85% 2.0 mph WNW3.2 kmh WNW 5.0 mph8.0 kmh 30.23 in1023.7 mb 0.00 in0.0 mm 0.00 in0.0 mm 0.00 in0.0 mm
01:20 AM 31.5°F-0.3°C 27.5°F-2.5°C 85% 4.0 mph WSW6.4 kmh WSW 4.0 mph6.4 kmh 30.23 in1023.7 mb 0.00 in0.0 mm 0.00 in0.0 mm 0.00 in0.0 mm
01:10 AM 31.7°F-0.2°C 27.7°F-2.4°C 85% 1.0 mph W1.6 kmh W 6.0 mph9.7 kmh 30.23 in1023.7 mb 0.00 in0.0 mm 0.00 in0.0 mm 0.00 in0.0 mm
01:00 AM 31.8°F-0.1°C 27.8°F-2.3°C 85% 6.0 mph NW9.7 kmh NW 6.0 mph9.7 kmh 30.23 in1023.7 mb 0.00 in0.0 mm 0.00 in0.0 mm 0.00 in0.0 mm
12:50 AM 31.9°F-0.1°C 27.9°F-2.3°C 85% 2.0 mph WNW3.2 kmh WNW 3.0 mph4.8 kmh 30.23 in1023.7 mb 0.00 in0.0 mm 0.00 in0.0 mm 0.00 in0.0 mm
12:40 AM 31.9°F-0.1°C 27.9°F-2.3°C 85% 3.0 mph W4.8 kmh W 5.0 mph8.0 kmh 30.23 in1023.7 mb 0.00 in0.0 mm 0.00 in0.0 mm 0.00 in0.0 mm
12:30 AM 31.9°F-0.1°C 28.5°F-1.9°C 87% 3.0 mph W4.8 kmh W 4.0 mph6.4 kmh 30.23 in1023.7 mb 0.00 in0.0 mm 0.00 in0.0 mm 0.00 in0.0 mm
12:20 AM 32.0°F0.0°C 28.6°F-1.9°C 87% 1.0 mph WNW1.6 kmh WNW 8.0 mph12.9 kmh 30.23 in1023.7 mb 0.00 in0.0 mm 0.00 in0.0 mm 0.00 in0.0 mm
12:10 AM 32.4°F0.2°C 28.7°F-1.8°C 86% 2.0 mph W3.2 kmh W 7.0 mph11.3 kmh 30.23 in1023.7 mb 0.00 in0.0 mm 0.00 in0.0 mm 0.00 in0.0 mm
12:00 AM 32.5°F0.3°C 28.2°F-2.1°C 84% 2.0 mph NW3.2 kmh NW 6.0 mph9.7 kmh 30.22 in1023.4 mb 0.00 in0.0 mm 0.00 in0.0 mm 0.00 in0.0 mm